Time;durP1;ratioP1;P1;durP2;ratioP2;P2;SDS_P1;SDS_P2;PMS_P1;PMS_P2;Temp;Humidity;BMP_temperature;BMP_pressure;BME280_temperature;BME280_humidity;BME280_pressure;Samples;Min_cycle;Max_cycle;Signal;HPM_P1;HPM_P2
2022/11/13 00:03:23;;;;;;;0.83;0.70;;;;;;;2.77;77.41;97686.19;10367444;28;20197;-75
2022/11/13 00:08:43;;;;;;;1.33;0.93;;;;;;;2.61;78.58;97691.38;10367345;28;20631;-74
2022/11/13 00:14:02;;;;;;;0.90;0.73;;;;;;;2.49;78.94;97698.84;10366652;28;20673;-75
2022/11/13 00:19:21;;;;;;;0.60;0.60;;;;;;;2.39;79.89;97699.41;10366963;28;20591;-74
2022/11/13 00:24:40;;;;;;;0.60;0.60;;;;;;;2.47;78.88;97676.59;10370208;28;20603;-75
2022/11/13 00:29:59;;;;;;;0.70;0.70;;;;;;;2.48;78.16;97657.56;10374321;28;20255;-76
2022/11/13 00:35:18;;;;;;;0.60;0.60;;;;;;;2.61;76.70;97632.69;10373729;28;20201;-76
2022/11/13 00:40:37;;;;;;;1.17;0.70;;;;;;;2.52;76.83;97627.19;10373330;28;20228;-76
2022/11/13 00:45:56;;;;;;;0.60;0.60;;;;;;;2.60;75.71;97622.44;10374303;28;20188;-75
2022/11/13 00:51:14;;;;;;;0.60;0.60;;;;;;;2.66;74.81;97596.22;10372896;28;20291;-74
2022/11/13 00:56:33;;;;;;;0.60;0.60;;;;;;;2.60;74.90;97606.91;10383931;28;20194;-76
2022/11/13 01:01:52;;;;;;;0.60;0.60;;;;;;;2.65;74.10;97589.41;10372667;28;20629;-76
2022/11/13 01:07:11;;;;;;;0.60;0.60;;;;;;;2.44;75.40;97612.94;10373198;28;20221;-76
2022/11/13 01:12:30;;;;;;;0.50;0.50;;;;;;;2.32;76.24;97616.19;10371906;28;20205;-74
2022/11/13 01:17:50;;;;;;;0.60;0.60;;;;;;;2.28;75.91;97612.09;10373273;28;20196;-76
2022/11/13 01:23:10;;;;;;;0.80;0.80;;;;;;;2.31;75.29;97604.16;10371776;28;20283;-75
2022/11/13 01:28:29;;;;;;;0.60;0.60;;;;;;;2.27;75.68;97600.09;10370829;28;20306;-75
2022/11/13 01:33:48;;;;;;;1.30;0.70;;;;;;;2.42;73.87;97572.53;10371192;28;20205;-76
2022/11/13 01:39:10;;;;;;;0.70;0.70;;;;;;;2.24;74.64;97583.00;10370488;28;20709;-74
2022/11/13 01:44:59;;;;;;;0.60;0.60;;;;;;;2.23;74.16;97573.56;10370887;28;20197;-75
2022/11/13 01:50:18;;;;;;;0.60;0.60;;;;;;;2.27;73.82;97553.56;10364413;28;20225;-75
2022/11/13 01:55:37;;;;;;;0.73;0.70;;;;;;;2.18;74.21;97554.88;10355625;28;20197;-74
2022/11/13 02:00:56;;;;;;;0.60;0.60;;;;;;;2.16;73.31;97533.47;10354927;28;20579;-75
2022/11/13 02:06:15;;;;;;;0.70;0.70;;;;;;;1.90;75.14;97558.09;10370237;28;20200;-75
2022/11/13 02:11:35;;;;;;;2.93;0.60;;;;;;;1.59;76.90;97572.63;10355125;28;20293;-75
2022/11/13 02:16:56;;;;;;;0.60;0.60;;;;;;;1.84;75.52;97548.94;10355170;28;20196;-75
2022/11/13 02:22:44;;;;;;;0.77;0.77;;;;;;;1.98;74.18;97529.31;10368323;28;20198;-75
2022/11/13 02:28:03;;;;;;;0.60;0.60;;;;;;;1.97;73.44;97510.34;10347289;28;20601;-75
2022/11/13 02:33:28;;;;;;;0.77;0.77;;;;;;;2.02;72.94;97507.53;10368091;28;20681;-75
2022/11/13 02:38:49;;;;;;;3.17;0.70;;;;;;;1.95;73.24;97519.94;10368651;28;20237;-75
2022/11/13 02:44:08;;;;;;;0.80;0.80;;;;;;;2.01;73.23;97506.69;10368696;28;20730;-76
2022/11/13 02:49:27;;;;;;;0.83;0.83;;;;;;;2.03;72.26;97499.69;10368500;28;20231;-76
2022/11/13 02:54:45;;;;;;;0.63;0.63;;;;;;;1.99;72.80;97492.19;10368212;28;20602;-74
2022/11/13 03:00:05;;;;;;;0.90;0.90;;;;;;;2.06;71.38;97478.84;10368965;28;20220;-74
2022/11/13 03:05:24;;;;;;;0.60;0.60;;;;;;;2.19;70.75;97460.91;10368065;28;20628;-76
2022/11/13 03:10:43;;;;;;;0.60;0.60;;;;;;;2.12;70.96;97455.25;10366533;28;20232;-75
2022/11/13 03:16:07;;;;;;;0.80;0.80;;;;;;;2.08;71.16;97468.41;10367744;28;20208;-73
2022/11/13 03:21:26;;;;;;;0.67;0.67;;;;;;;2.26;69.87;97451.06;10367231;28;20205;-75
2022/11/13 03:26:45;;;;;;;0.70;0.70;;;;;;;1.91;71.75;97461.59;10367946;28;20224;-75
2022/11/13 03:32:04;;;;;;;1.03;0.80;;;;;;;1.48;74.57;97513.81;10367094;28;20288;-75
2022/11/13 03:37:23;;;;;;;0.70;0.70;;;;;;;1.68;73.54;97494.66;10386940;28;20619;-75
2022/11/13 03:42:42;;;;;;;0.77;0.77;;;;;;;1.87;72.07;97473.88;10407886;28;20194;-75
2022/11/13 03:48:01;;;;;;;0.63;0.63;;;;;;;1.86;72.27;97492.03;10408733;28;20220;-75
2022/11/13 03:53:20;;;;;;;0.60;0.60;;;;;;;1.88;72.16;97477.28;10408156;28;20184;-75
2022/11/13 03:58:39;;;;;;;0.67;0.67;;;;;;;1.71;73.37;97486.75;10411138;28;20672;-75
2022/11/13 04:03:58;;;;;;;0.80;0.80;;;;;;;1.90;72.98;97475.44;10412781;28;20279;-75
2022/11/13 04:09:17;;;;;;;0.70;0.70;;;;;;;2.10;71.48;97449.34;10408946;28;20601;-75
2022/11/13 04:14:36;;;;;;;1.43;0.70;;;;;;;1.78;73.77;97497.63;10408067;28;20569;-75
2022/11/13 04:19:55;;;;;;;1.40;0.70;;;;;;;1.83;73.83;97487.84;10407678;28;20188;-76
2022/11/13 04:25:14;;;;;;;0.63;0.63;;;;;;;1.90;73.88;97498.69;10407606;28;20191;-75
2022/11/13 04:30:33;;;;;;;1.57;0.77;;;;;;;2.02;74.00;97492.88;10406865;28;20778;-75
2022/11/13 04:35:52;;;;;;;0.60;0.60;;;;;;;1.99;73.72;97490.47;10391688;28;20691;-76
2022/11/13 04:46:49;;;;;;;1.80;0.70;;;;;;;1.78;76.12;97515.69;10402995;28;20295;-76
2022/11/13 04:52:08;;;;;;;0.90;0.70;;;;;;;1.90;76.26;97521.94;10407201;28;20197;-76
2022/11/13 04:57:27;;;;;;;0.67;0.67;;;;;;;2.03;75.97;97496.28;10406895;28;20564;-76
2022/11/13 05:02:46;;;;;;;0.80;0.80;;;;;;;1.99;76.34;97508.53;10409865;28;20724;-76
2022/11/13 05:08:05;;;;;;;0.70;0.70;;;;;;;2.21;76.21;97487.50;10413347;28;20227;-75
2022/11/13 05:13:24;;;;;;;0.70;0.70;;;;;;;2.16;76.66;97504.19;10413707;28;20195;-75
2022/11/13 05:18:43;;;;;;;1.40;0.70;;;;;;;2.25;75.65;97478.66;10413591;28;20254;-76
2022/11/13 05:24:03;;;;;;;0.80;0.80;;;;;;;2.28;76.16;97472.47;10412635;28;20199;-76
2022/11/13 05:29:22;;;;;;;0.73;0.73;;;;;;;2.20;77.09;97483.25;10412091;28;20661;-76
2022/11/13 05:34:41;;;;;;;3.90;2.40;;;;;;;2.24;77.13;97482.16;10412515;28;20199;-75
2022/11/13 05:40:00;;;;;;;1.93;0.77;;;;;;;2.39;76.76;97469.28;10412283;28;20706;-75
2022/11/13 05:45:19;;;;;;;0.80;0.80;;;;;;;2.38;76.48;97465.06;10411892;28;20739;-75
2022/11/13 05:50:38;;;;;;;1.20;1.10;;;;;;;2.36;76.50;97459.13;10412682;28;20336;-75
2022/11/13 05:56:05;;;;;;;0.80;0.80;;;;;;;2.55;75.62;97436.47;10411591;28;20200;-75
2022/11/13 06:01:30;;;;;;;1.37;1.27;;;;;;;2.38;76.74;97452.94;10411547;28;20219;-75
2022/11/13 06:06:49;;;;;;;0.67;0.67;;;;;;;2.56;75.84;97434.69;10411140;28;20224;-76
2022/11/13 06:12:07;;;;;;;1.13;0.90;;;;;;;2.61;74.60;97430.94;10411083;28;20664;-75
2022/11/13 06:17:26;;;;;;;0.90;0.90;;;;;;;2.63;74.61;97413.59;10411300;28;20645;-75
2022/11/13 06:22:45;;;;;;;1.50;1.00;;;;;;;2.66;74.69;97428.09;10400038;28;20197;-75
2022/11/13 06:28:04;;;;;;;0.80;0.80;;;;;;;2.76;73.19;97397.34;10386234;28;20225;-76
2022/11/13 06:33:23;;;;;;;3.20;0.70;;;;;;;2.93;72.01;97375.63;10386176;28;20201;-76
2022/11/13 06:38:43;;;;;;;3.20;2.40;;;;;;;2.67;74.03;97416.81;10386175;28;20243;-75
2022/11/13 06:44:02;;;;;;;0.80;0.80;;;;;;;2.75;73.74;97408.59;10384783;28;20228;-76
2022/11/13 06:49:21;;;;;;;1.17;1.13;;;;;;;2.77;73.29;97407.59;10374741;28;20217;-75
2022/11/13 06:54:40;;;;;;;2.10;1.63;;;;;;;2.68;73.95;97411.56;10368410;28;20197;-76
2022/11/13 06:59:59;;;;;;;7.60;4.30;;;;;;;2.65;74.71;97426.44;10369043;28;20725;-76
2022/11/13 07:05:18;;;;;;;26.43;13.53;;;;;;;2.52;76.21;97459.91;10367909;28;20196;-74
2022/11/13 07:10:37;;;;;;;10.87;6.83;;;;;;;2.65;76.53;97455.72;10374758;28;20224;-76
2022/11/13 07:16:00;;;;;;;3.13;2.83;;;;;;;3.00;74.80;97436.44;10407151;28;20192;-76
2022/11/13 07:21:20;;;;;;;1.57;1.40;;;;;;;3.36;75.44;97443.75;10408738;28;20197;-76
2022/11/13 07:26:39;;;;;;;3.43;1.43;;;;;;;3.80;74.71;97439.34;10408559;28;20508;-76
2022/11/13 07:31:58;;;;;;;1.70;1.57;;;;;;;4.40;73.76;97422.56;10402535;28;20225;-76
2022/11/13 07:37:17;;;;;;;1.97;1.70;;;;;;;5.22;70.92;97387.69;10367207;28;20704;-76
2022/11/13 07:42:36;;;;;;;3.50;2.30;;;;;;;5.61;69.49;97367.66;10382564;28;20212;-75
2022/11/13 07:47:59;;;;;;;5.07;3.67;;;;;;;6.34;68.25;97352.84;10408430;28;20220;-76
2022/11/13 07:53:20;;;;;;;4.13;2.93;;;;;;;6.56;68.27;97362.50;10407814;28;20197;-76
2022/11/13 07:58:38;;;;;;;3.20;1.90;;;;;;;7.22;66.16;97330.56;10407988;28;20712;-76
2022/11/13 08:03:58;;;;;;;3.63;2.30;;;;;;;7.22;66.19;97331.41;10390269;28;20200;-76
2022/11/13 08:09:16;;;;;;;2.47;1.73;;;;;;;7.59;66.29;97343.31;10391729;28;20224;-76
2022/11/13 08:14:35;;;;;;;3.40;2.57;;;;;;;8.69;62.76;97296.06;10382207;28;20196;-76
2022/11/13 08:19:54;;;;;;;4.27;3.17;;;;;;;8.83;62.98;97300.13;10373120;28;20189;-77
2022/11/13 08:25:13;;;;;;;3.97;3.00;;;;;;;9.52;61.63;97296.75;10366107;28;20229;-76
2022/11/13 08:30:32;;;;;;;4.87;2.70;;;;;;;10.10;60.63;97297.75;10366775;28;20229;-77
2022/11/13 08:35:55;;;;;;;2.70;2.10;;;;;;;10.28;60.20;97298.69;10368216;28;20224;-78
2022/11/13 08:41:14;;;;;;;4.25;2.10;;;;;;;10.28;60.07;97300.50;10385296;28;20185;-79
2022/11/13 08:46:33;;;;;;;1.98;1.63;;;;;;;11.24;57.51;97238.22;10374489;28;20204;-80
2022/11/13 08:51:52;;;;;;;2.45;1.80;;;;;;;10.36;59.35;97274.44;10378319;28;20256;-78
2022/11/13 08:57:11;;;;;;;6.13;2.60;;;;;;;11.55;59.51;97305.28;10373444;28;20194;-79
2022/11/13 09:02:30;;;;;;;5.47;3.50;;;;;;;11.77;56.80;97254.97;10377954;28;20197;-78
2022/11/13 09:07:50;;;;;;;20.20;9.30;;;;;;;13.26;53.21;97221.66;10385700;28;20229;-78
2022/11/13 09:13:10;;;;;;;10.13;4.60;;;;;;;14.50;49.82;97182.97;10372160;28;20201;-78
2022/11/13 09:18:29;;;;;;;4.15;2.40;;;;;;;14.69;48.27;97171.25;10372592;28;20193;-80
2022/11/13 09:23:49;;;;;;;2.53;2.10;;;;;;;15.92;46.03;97146.69;10379534;28;20567;-79
2022/11/13 09:29:09;;;;;;;3.47;2.17;;;;;;;17.25;44.93;97175.94;10369508;28;20221;-79
2022/11/13 09:34:27;;;;;;;1.75;1.52;;;;;;;18.54;41.62;97128.06;10370506;28;20193;-79
2022/11/13 09:39:46;;;;;;;5.93;4.72;;;;;;;16.91;41.06;97080.28;10371050;28;20295;-74
2022/11/13 09:45:12;;;;;;;2.25;1.00;;;;;;;18.50;40.08;97110.06;10371084;28;20224;-76
2022/11/13 09:50:32;;;;;;;1.08;0.93;;;;;;;19.77;38.77;97113.06;10371489;28;20697;-75
2022/11/13 09:56:06;;;;;;;3.20;2.20;;;;;;;19.68;39.38;97132.84;10369292;28;20197;-74
2022/11/13 10:01:32;;;;;;;3.50;2.60;;;;;;;20.81;35.58;97079.44;10370563;28;20193;-76
2022/11/13 10:07:17;;;;;;;2.53;2.33;;;;;;;21.57;34.03;97062.78;10354983;28;20197;-75
2022/11/13 10:12:36;;;;;;;5.07;3.60;;;;;;;20.14;36.85;97084.16;10370782;28;20196;-75
2022/11/13 10:18:05;;;;;;;5.25;2.60;;;;;;;19.77;39.13;97143.13;10355347;28;20228;-76
2022/11/13 10:23:30;;;;;;;5.45;3.17;;;;;;;18.79;41.69;97180.63;10353914;28;20198;-75
2022/11/13 10:28:59;;;;;;;3.55;2.70;;;;;;;18.75;42.98;97205.09;10354807;28;20185;-75
2022/11/13 10:34:18;;;;;;;2.83;2.47;;;;;;;18.65;43.69;97224.84;10369163;28;20190;-75
2022/11/13 10:39:44;;;;;;;14.73;10.75;;;;;;;20.47;41.36;97216.31;10369240;28;20315;-75
2022/11/13 10:45:03;;;;;;;2.95;2.53;;;;;;;19.65;41.95;97195.22;10369023;28;20692;-76
2022/11/13 10:50:24;;;;;;;4.47;3.50;;;;;;;20.99;39.81;97179.13;10369631;28;20771;-75
2022/11/13 10:55:44;;;;;;;8.18;5.10;;;;;;;19.50;42.55;97195.38;10368664;28;20736;-74
2022/11/13 11:01:21;;;;;;;5.38;4.10;;;;;;;20.23;43.00;97215.94;10354222;28;20228;-75
2022/11/13 11:06:40;;;;;;;4.80;3.60;;;;;;;22.23;39.77;97197.44;10367470;28;20193;-75
2022/11/13 11:12:21;;;;;;;4.95;4.07;;;;;;;19.72;44.31;97227.13;10368112;28;20578;-76
2022/11/13 11:17:44;;;;;;;6.05;4.30;;;;;;;21.65;41.59;97222.50;10368082;28;20217;-75
2022/11/13 11:23:15;;;;;;;5.50;4.35;;;;;;;21.79;41.72;97212.53;10366881;28;20197;-76
2022/11/13 11:28:42;;;;;;;6.63;4.72;;;;;;;21.28;42.17;97200.94;10368471;28;20193;-76
2022/11/13 11:34:27;;;;;;;5.50;4.38;;;;;;;22.15;41.05;97193.19;10367837;28;20193;-75
2022/11/13 11:39:50;;;;;;;7.28;4.72;;;;;;;23.11;39.34;97182.19;10367385;28;20240;-75
2022/11/13 11:45:24;;;;;;;4.95;4.32;;;;;;;22.41;41.00;97194.81;10352432;28;20221;-76
2022/11/13 11:51:04;;;;;;;6.55;4.97;;;;;;;20.69;44.90;97229.41;10352708;28;20177;-76
2022/11/13 11:56:41;;;;;;;5.97;4.25;;;;;;;21.41;43.48;97213.34;10367158;28;20198;-75
2022/11/13 12:02:42;;;;;;;7.72;5.18;;;;;;;21.51;41.79;97171.09;10367180;28;20236;-75
2022/11/13 12:08:33;;;;;;;5.55;4.00;;;;;;;22.39;40.50;97153.38;10367047;28;20190;-75
2022/11/13 12:14:03;;;;;;;5.03;3.90;;;;;;;22.85;39.73;97140.53;10363452;28;20193;-75
2022/11/13 12:19:44;;;;;;;5.47;4.10;;;;;;;23.21;39.31;97137.00;10368505;28;20225;-75
2022/11/13 12:25:09;;;;;;;5.80;5.00;;;;;;;23.05;38.74;97098.34;10373729;28;20197;-75
2022/11/13 12:30:44;;;;;;;4.93;3.75;;;;;;;23.89;38.47;97112.75;10374342;28;20197;-75
2022/11/13 12:36:04;;;;;;;6.45;4.13;;;;;;;21.62;40.90;97092.25;10372645;28;20241;-75
2022/11/13 12:41:42;;;;;;;6.35;4.45;;;;;;;22.26;40.83;97106.25;10359277;28;20229;-75
2022/11/13 12:47:01;;;;;;;5.03;3.85;;;;;;;22.62;40.36;97086.78;10358184;28;20272;-75
2022/11/13 12:52:23;;;;;;;5.57;4.53;;;;;;;23.07;39.82;97090.91;10373666;28;20201;-75
2022/11/13 12:57:46;;;;;;;4.75;4.15;;;;;;;23.82;38.21;97070.84;10373350;28;20253;-76
2022/11/13 13:03:08;;;;;;;5.07;3.97;;;;;;;24.06;38.01;97059.34;10357889;28;20565;-75
2022/11/13 13:08:33;;;;;;;4.40;3.60;;;;;;;22.88;38.79;97044.72;10373714;28;20557;-75
2022/11/13 13:14:10;;;;;;;6.28;3.00;;;;;;;23.54;38.36;97046.63;10372672;28;20193;-75
2022/11/13 13:19:31;;;;;;;4.82;3.72;;;;;;;23.23;38.04;97013.81;10371404;28;20638;-75
2022/11/13 13:24:59;;;;;;;5.68;3.90;;;;;;;24.48;36.77;97030.50;10356802;28;20189;-76
2022/11/13 13:30:20;;;;;;;4.28;3.40;;;;;;;23.88;37.55;97033.53;10371651;28;20189;-76
2022/11/13 13:36:17;;;;;;;5.43;4.53;;;;;;;22.56;38.55;97002.22;10371330;28;20193;-76
2022/11/13 13:42:04;;;;;;;4.78;3.63;;;;;;;23.50;37.51;97001.63;10371877;28;20261;-76
2022/11/13 13:47:44;;;;;;;6.28;4.97;;;;;;;21.25;42.56;97060.94;10371049;28;20685;-75
2022/11/13 13:53:04;;;;;;;7.10;6.03;;;;;;;21.81;41.65;97053.13;10356758;28;20288;-74
2022/11/13 13:58:32;;;;;;;9.45;6.70;;;;;;;21.65;41.18;97036.63;10356373;28;20221;-75
2022/11/13 14:04:24;;;;;;;20.17;14.52;;;;;;;21.42;41.93;97044.41;10355600;28;20194;-74
2022/11/13 14:09:43;;;;;;;15.35;11.40;;;;;;;21.86;39.98;97010.63;10353160;28;20677;-74
2022/11/13 14:15:04;;;;;;;8.60;6.93;;;;;;;21.37;40.92;97021.88;10354758;28;20197;-74
2022/11/13 14:20:23;;;;;;;6.00;5.40;;;;;;;20.83;42.68;97049.94;10369869;28;20233;-74
2022/11/13 14:25:42;;;;;;;6.45;4.75;;;;;;;19.11;45.12;97040.25;10369571;28;20205;-75
2022/11/13 14:31:06;;;;;;;8.75;5.90;;;;;;;16.72;50.46;97110.78;10354814;28;20328;-74
2022/11/13 14:36:32;;;;;;;7.10;5.88;;;;;;;15.41;53.22;97125.34;10354388;28;20301;-74
2022/11/13 14:42:00;;;;;;;8.98;6.50;;;;;;;13.95;56.39;97160.88;10368637;28;20662;-74
2022/11/13 14:47:36;;;;;;;10.02;5.78;;;;;;;12.82;59.67;97207.72;10369063;28;20202;-74
2022/11/13 14:53:01;;;;;;;10.18;6.88;;;;;;;11.89;63.67;97252.94;10368487;28;20189;-74
2022/11/13 14:58:31;;;;;;;14.82;10.65;;;;;;;10.39;68.77;97273.34;10368546;28;20220;-74
2022/11/13 15:03:50;;;;;;;11.70;8.45;;;;;;;10.19;70.45;97249.78;10368441;28;20185;-75
2022/11/13 15:09:12;;;;;;;9.60;6.57;;;;;;;8.91;75.62;97267.16;10368561;28;20645;-75
2022/11/13 15:14:31;;;;;;;10.90;7.60;;;;;;;7.94;82.53;97274.44;10368240;28;20190;-74
2022/11/13 15:19:51;;;;;;;11.93;7.30;;;;;;;7.92;81.51;97235.44;10353275;28;20253;-74
2022/11/13 15:25:15;;;;;;;10.67;6.60;;;;;;;6.80;85.45;97247.84;10352710;28;20674;-75
2022/11/13 15:30:34;;;;;;;11.43;7.20;;;;;;;6.85;84.26;97224.06;10367821;28;20666;-75
2022/11/13 15:35:53;;;;;;;10.20;7.00;;;;;;;6.50;84.75;97223.22;10366208;28;20221;-75
2022/11/13 15:41:18;;;;;;;12.53;7.00;;;;;;;5.97;88.36;97249.78;10367527;28;20764;-76
2022/11/13 15:46:38;;;;;;;14.43;8.70;;;;;;;5.70;90.60;97247.44;10367752;28;20204;-76
2022/11/13 15:51:57;;;;;;;19.07;10.97;;;;;;;5.41;92.98;97245.16;10367209;28;20272;-76
2022/11/13 15:57:20;;;;;;;19.40;12.40;;;;;;;5.02;97.26;97251.44;10371438;28;20284;-76
2022/11/13 16:02:40;;;;;;;17.13;10.87;;;;;;;4.62;100.00;97248.13;10375438;28;20201;-75
2022/11/13 16:07:58;;;;;;;15.87;9.87;;;;;;;4.68;100.00;97244.25;10375464;28;20189;-75
2022/11/13 16:13:17;;;;;;;15.40;10.13;;;;;;;4.52;100.00;97249.69;10374944;28;20741;-76
2022/11/13 16:18:36;;;;;;;18.77;11.57;;;;;;;3.82;100.00;97250.88;10375079;28;20595;-76
2022/11/13 16:23:55;;;;;;;23.27;12.10;;;;;;;3.80;100.00;97250.16;10374242;28;20201;-76
2022/11/13 16:29:19;;;;;;;20.67;10.67;;;;;;;3.63;100.00;97255.59;10374581;28;20643;-76
2022/11/13 16:34:38;;;;;;;21.50;11.77;;;;;;;3.45;100.00;97263.66;10374527;28;20189;-76
2022/11/13 16:39:57;;;;;;;18.47;10.80;;;;;;;3.17;100.00;97262.81;10371233;28;20236;-76
2022/11/13 16:45:17;;;;;;;16.67;10.40;;;;;;;2.91;100.00;97261.00;10356452;28;20204;-76
2022/11/13 16:50:38;;;;;;;23.07;14.03;;;;;;;2.90;100.00;97252.44;10373746;28;20197;-75
2022/11/13 16:55:57;;;;;;;18.67;11.47;;;;;;;2.54;100.00;97253.75;10372627;28;20205;-76
2022/11/13 17:01:17;;;;;;;28.63;17.30;;;;;;;2.37;100.00;97251.38;10391295;28;20217;-76
2022/11/13 17:06:36;;;;;;;29.20;19.70;;;;;;;2.25;100.00;97246.00;10394919;28;20637;-76
2022/11/13 17:11:55;;;;;;;28.67;20.07;;;;;;;1.99;100.00;97233.78;10408314;28;20542;-76
2022/11/13 17:17:14;;;;;;;27.00;17.30;;;;;;;2.13;100.00;97247.56;10391251;28;20576;-76
2022/11/13 17:22:33;;;;;;;19.80;12.80;;;;;;;1.98;100.00;97237.31;10389289;28;20201;-76
2022/11/13 17:27:52;;;;;;;19.40;12.43;;;;;;;1.75;100.00;97231.72;10380480;28;20201;-76
2022/11/13 17:33:11;;;;;;;20.97;13.83;;;;;;;1.77;100.00;97211.81;10378553;28;20217;-76
2022/11/13 17:38:30;;;;;;;18.27;11.43;;;;;;;1.64;100.00;97219.44;10384641;28;20244;-76
2022/11/13 17:43:49;;;;;;;18.33;10.53;;;;;;;1.24;100.00;97214.78;10367489;28;20632;-76
2022/11/13 17:49:08;;;;;;;17.80;11.03;;;;;;;1.28;100.00;97220.59;10379678;28;20216;-76
2022/11/13 17:54:28;;;;;;;26.57;14.10;;;;;;;1.50;100.00;97227.13;10379981;28;20205;-76
2022/11/13 17:59:47;;;;;;;20.07;12.77;;;;;;;1.18;100.00;97216.88;10378776;28;20190;-76
2022/11/13 18:05:08;;;;;;;21.20;12.80;;;;;;;1.30;100.00;97215.34;10380925;28;20276;-76
2022/11/13 18:10:26;;;;;;;25.63;15.13;;;;;;;1.72;100.00;97214.66;10378084;28;20213;-76
2022/11/13 18:15:45;;;;;;;39.23;21.03;;;;;;;2.99;100.00;97214.81;10371882;28;20601;-76
2022/11/13 18:21:09;;;;;;;44.50;24.43;;;;;;;4.86;100.00;97207.56;10360803;28;20544;-76
2022/11/13 18:26:29;;;;;;;32.97;16.80;;;;;;;5.92;100.00;97192.03;10360231;28;20737;-75
2022/11/13 18:31:48;;;;;;;34.27;19.60;;;;;;;6.25;100.00;97174.88;10360634;28;20252;-76
2022/11/13 18:37:07;;;;;;;34.07;21.13;;;;;;;6.35;100.00;97175.78;10359323;28;20696;-76
2022/11/13 18:42:27;;;;;;;28.27;17.43;;;;;;;6.33;100.00;97169.88;10360405;28;20208;-76
2022/11/13 18:47:45;;;;;;;27.43;17.53;;;;;;;6.59;100.00;97157.44;10360053;28;20296;-76
2022/11/13 18:53:04;;;;;;;30.60;20.37;;;;;;;6.58;100.00;97157.56;10358591;28;20684;-76
2022/11/13 18:58:23;;;;;;;21.80;13.47;;;;;;;6.91;100.00;97158.47;10359298;28;20617;-76
2022/11/13 19:03:43;;;;;;;24.30;14.13;;;;;;;6.84;100.00;97149.47;10358499;28;20208;-76
2022/11/13 19:09:05;;;;;;;22.87;14.20;;;;;;;6.81;100.00;97160.13;10358932;28;20229;-76
2022/11/13 19:14:24;;;;;;;25.37;16.83;;;;;;;6.76;100.00;97160.50;10358966;28;20198;-76
2022/11/13 19:19:43;;;;;;;26.60;18.70;;;;;;;6.67;100.00;97167.25;10362865;28;20193;-76
2022/11/13 19:25:02;;;;;;;18.07;11.57;;;;;;;6.69;100.00;97154.97;10362587;28;20197;-76
2022/11/13 19:30:21;;;;;;;23.60;14.00;;;;;;;6.55;100.00;97157.81;10370837;28;20225;-76
2022/11/13 19:35:40;;;;;;;30.47;18.40;;;;;;;6.31;100.00;97170.94;10397893;28;20196;-76
2022/11/13 19:40:59;;;;;;;31.37;18.63;;;;;;;6.02;100.00;97169.66;10399675;28;20541;-76
2022/11/13 19:46:19;;;;;;;27.73;16.97;;;;;;;6.00;100.00;97171.53;10397204;28;20291;-76
2022/11/13 19:51:38;;;;;;;31.17;19.43;;;;;;;5.87;100.00;97178.56;10399179;28;20224;-76
2022/11/13 19:56:57;;;;;;;25.83;15.27;;;;;;;5.63;100.00;97174.25;10374367;28;20200;-76
2022/11/13 20:02:16;;;;;;;33.33;19.53;;;;;;;5.34;100.00;97181.59;10357383;28;20193;-76
2022/11/13 20:07:35;;;;;;;32.07;22.17;;;;;;;5.10;100.00;97177.25;10360173;28;20197;-76
2022/11/13 20:12:53;;;;;;;33.60;21.73;;;;;;;5.14;100.00;97180.44;10365696;28;20235;-76
2022/11/13 20:18:13;;;;;;;32.57;20.07;;;;;;;5.15;100.00;97182.94;10384807;28;20193;-76
2022/11/13 20:23:32;;;;;;;30.63;18.87;;;;;;;5.28;100.00;97188.09;10406539;28;20549;-76
2022/11/13 20:28:51;;;;;;;30.67;19.37;;;;;;;5.32;100.00;97181.72;10406222;28;20220;-76
2022/11/13 20:34:10;;;;;;;30.13;18.93;;;;;;;5.20;100.00;97186.97;10406065;28;20197;-76
2022/11/13 20:39:29;;;;;;;27.77;19.17;;;;;;;4.68;100.00;97186.34;10406278;28;20237;-76
2022/11/13 20:44:48;;;;;;;33.97;21.97;;;;;;;4.20;100.00;97182.69;10393062;28;20201;-76
2022/11/13 20:50:08;;;;;;;30.87;20.43;;;;;;;3.90;100.00;97183.00;10381436;28;20213;-76
2022/11/13 20:55:26;;;;;;;30.53;20.27;;;;;;;3.76;100.00;97191.69;10412614;28;20196;-76
2022/11/13 21:00:45;;;;;;;28.37;18.27;;;;;;;3.50;100.00;97194.25;10413012;28;20644;-76
2022/11/13 21:06:05;;;;;;;70.60;37.17;;;;;;;3.11;100.00;97188.13;10411983;28;20667;-76
2022/11/13 21:11:24;;;;;;;38.33;22.67;;;;;;;2.74;100.00;97187.88;10412480;28;20688;-76
2022/11/13 21:16:43;;;;;;;33.37;19.80;;;;;;;2.48;100.00;97176.53;10412537;28;20664;-76
2022/11/13 21:22:02;;;;;;;31.10;18.87;;;;;;;2.22;100.00;97173.81;10419555;28;20191;-76
2022/11/13 21:27:20;;;;;;;32.57;20.03;;;;;;;1.95;100.00;97173.72;10452504;28;20191;-76
2022/11/13 21:32:39;;;;;;;35.70;20.53;;;;;;;1.94;100.00;97175.47;10452257;28;20187;-76
2022/11/13 21:38:03;;;;;;;33.47;20.37;;;;;;;1.78;100.00;97167.78;10452214;28;20680;-76
2022/11/13 21:43:23;;;;;;;32.37;18.77;;;;;;;1.69;100.00;97162.34;10452703;28;20192;-75
2022/11/13 21:48:43;;;;;;;34.70;20.90;;;;;;;1.61;100.00;97152.47;10453929;28;20228;-75
2022/11/13 21:54:02;;;;;;;33.50;20.13;;;;;;;1.49;100.00;97154.00;10451495;28;20199;-75
2022/11/13 21:59:21;;;;;;;45.90;26.63;;;;;;;1.40;100.00;97157.13;10454042;28;20600;-76
2022/11/13 22:04:40;;;;;;;43.93;25.07;;;;;;;1.39;100.00;97164.06;10452083;28;20215;-76
2022/11/13 22:09:59;;;;;;;39.40;22.70;;;;;;;1.25;100.00;97161.41;10452842;28;20281;-75
2022/11/13 22:15:18;;;;;;;37.37;23.10;;;;;;;0.91;100.00;97162.50;10452202;28;20267;-76
2022/11/13 22:20:37;;;;;;;37.17;21.43;;;;;;;0.85;100.00;97164.47;10451772;28;20192;-76
2022/11/13 22:26:10;;;;;;;39.07;21.03;;;;;;;0.85;100.00;97155.94;10452018;28;20188;-76
2022/11/13 22:31:30;;;;;;;33.97;21.13;;;;;;;0.67;100.00;97160.34;10436737;28;20231;-76
2022/11/13 22:36:48;;;;;;;33.30;19.73;;;;;;;0.52;100.00;97154.25;10451857;28;20322;-76
2022/11/13 22:42:07;;;;;;;39.73;21.43;;;;;;;0.52;100.00;97151.69;10451383;28;20189;-76
2022/11/13 22:47:26;;;;;;;35.27;20.60;;;;;;;0.51;100.00;97144.88;10451526;28;20199;-76
2022/11/13 22:52:45;;;;;;;37.37;21.90;;;;;;;0.55;100.00;97128.31;10450773;28;20188;-76
2022/11/13 22:58:04;;;;;;;34.30;20.17;;;;;;;0.46;100.00;97128.81;10450793;28;20188;-76
2022/11/13 23:03:23;;;;;;;35.63;21.13;;;;;;;0.29;100.00;97127.16;10450100;28;20273;-76
2022/11/13 23:08:42;;;;;;;40.50;21.53;;;;;;;0.31;100.00;97127.94;10450488;28;20624;-75
2022/11/13 23:14:03;;;;;;;38.10;21.37;;;;;;;0.47;100.00;97115.03;10450040;28;20651;-75
2022/11/13 23:19:22;;;;;;;35.53;21.17;;;;;;;0.31;100.00;97105.56;10450187;28;20195;-76
2022/11/13 23:24:41;;;;;;;33.43;20.57;;;;;;;0.59;100.00;97111.78;10450176;28;20190;-75
2022/11/13 23:30:00;;;;;;;35.20;20.40;;;;;;;0.64;100.00;97112.34;10450073;28;20590;-76
2022/11/13 23:35:19;;;;;;;33.67;18.80;;;;;;;1.45;100.00;97094.91;10449681;28;20191;-75
2022/11/13 23:40:38;;;;;;;31.03;18.90;;;;;;;1.06;100.00;97099.72;10449603;28;20232;-75
2022/11/13 23:45:57;;;;;;;39.03;20.03;;;;;;;1.44;100.00;97094.09;10450066;28;20196;-76
2022/11/13 23:51:15;;;;;;;35.57;20.80;;;;;;;1.96;100.00;97096.13;10449261;28;20231;-76
2022/11/13 23:56:34;;;;;;;40.13;21.67;;;;;;;2.50;100.00;97090.19;10449619;28;20196;-76
